sensor_id;sensor_type;location;lat;lon;timestamp;P1;durP1;ratioP1;P2;durP2;ratioP2
19280;SDS011;9774;52.034;5.342;2024-02-14T00:00:28;2.13;;;1.85;;
19280;SDS011;9774;52.034;5.342;2024-02-14T00:02:56;3.05;;;2.47;;
19280;SDS011;9774;52.034;5.342;2024-02-14T00:05:24;3.03;;;2.20;;
19280;SDS011;9774;52.034;5.342;2024-02-14T00:07:51;2.40;;;2.20;;
19280;SDS011;9774;52.034;5.342;2024-02-14T00:10:18;2.22;;;2.03;;
19280;SDS011;9774;52.034;5.342;2024-02-14T00:12:45;2.40;;;2.03;;
19280;SDS011;9774;52.034;5.342;2024-02-14T00:15:13;2.50;;;2.00;;
19280;SDS011;9774;52.034;5.342;2024-02-14T00:17:41;2.38;;;2.17;;
19280;SDS011;9774;52.034;5.342;2024-02-14T00:20:09;2.67;;;2.42;;
19280;SDS011;9774;52.034;5.342;2024-02-14T00:22:38;2.63;;;2.40;;
19280;SDS011;9774;52.034;5.342;2024-02-14T00:25:06;3.00;;;2.47;;
19280;SDS011;9774;52.034;5.342;2024-02-14T00:27:34;2.67;;;2.10;;
19280;SDS011;9774;52.034;5.342;2024-02-14T00:30:01;2.53;;;2.33;;
19280;SDS011;9774;52.034;5.342;2024-02-14T00:32:29;2.60;;;2.35;;
19280;SDS011;9774;52.034;5.342;2024-02-14T00:34:56;2.78;;;2.45;;
19280;SDS011;9774;52.034;5.342;2024-02-14T00:37:23;2.97;;;2.67;;
19280;SDS011;9774;52.034;5.342;2024-02-14T00:39:52;2.45;;;2.25;;
19280;SDS011;9774;52.034;5.342;2024-02-14T00:42:21;2.50;;;2.30;;
19280;SDS011;9774;52.034;5.342;2024-02-14T00:44:48;2.83;;;2.63;;
19280;SDS011;9774;52.034;5.342;2024-02-14T00:47:15;3.28;;;2.97;;
19280;SDS011;9774;52.034;5.342;2024-02-14T00:49:42;3.55;;;2.80;;
19280;SDS011;9774;52.034;5.342;2024-02-14T00:52:10;4.95;;;2.63;;
19280;SDS011;9774;52.034;5.342;2024-02-14T00:54:37;3.03;;;2.72;;
19280;SDS011;9774;52.034;5.342;2024-02-14T00:57:06;2.78;;;2.58;;
19280;SDS011;9774;52.034;5.342;2024-02-14T00:59:33;3.25;;;2.80;;
19280;SDS011;9774;52.034;5.342;2024-02-14T01:02:00;4.25;;;3.17;;
19280;SDS011;9774;52.034;5.342;2024-02-14T01:04:27;3.67;;;3.08;;
19280;SDS011;9774;52.034;5.342;2024-02-14T01:06:54;3.38;;;3.08;;
19280;SDS011;9774;52.034;5.342;2024-02-14T01:09:21;3.35;;;2.75;;
19280;SDS011;9774;52.034;5.342;2024-02-14T01:11:49;3.90;;;3.15;;
19280;SDS011;9774;52.034;5.342;2024-02-14T01:14:17;2.95;;;2.75;;
19280;SDS011;9774;52.034;5.342;2024-02-14T01:16:44;4.82;;;3.38;;
19280;SDS011;9774;52.034;5.342;2024-02-14T01:19:13;3.42;;;3.05;;
19280;SDS011;9774;52.034;5.342;2024-02-14T01:21:40;3.72;;;2.92;;
19280;SDS011;9774;52.034;5.342;2024-02-14T01:24:07;3.30;;;3.00;;
19280;SDS011;9774;52.034;5.342;2024-02-14T01:26:34;4.15;;;2.90;;
19280;SDS011;9774;52.034;5.342;2024-02-14T01:29:02;3.65;;;3.05;;
19280;SDS011;9774;52.034;5.342;2024-02-14T01:31:32;3.15;;;2.85;;
19280;SDS011;9774;52.034;5.342;2024-02-14T01:34:00;5.78;;;3.47;;
19280;SDS011;9774;52.034;5.342;2024-02-14T01:36:28;3.65;;;3.03;;
19280;SDS011;9774;52.034;5.342;2024-02-14T01:38:55;4.30;;;3.90;;
19280;SDS011;9774;52.034;5.342;2024-02-14T01:41:22;3.65;;;3.30;;
19280;SDS011;9774;52.034;5.342;2024-02-14T01:43:49;4.80;;;3.67;;
19280;SDS011;9774;52.034;5.342;2024-02-14T01:46:16;3.72;;;3.35;;
19280;SDS011;9774;52.034;5.342;2024-02-14T01:48:45;3.83;;;3.45;;
19280;SDS011;9774;52.034;5.342;2024-02-14T01:51:13;3.40;;;3.10;;
19280;SDS011;9774;52.034;5.342;2024-02-14T01:53:46;4.18;;;3.45;;
19280;SDS011;9774;52.034;5.342;2024-02-14T01:56:13;5.15;;;3.72;;
19280;SDS011;9774;52.034;5.342;2024-02-14T01:58:41;3.47;;;3.17;;
19280;SDS011;9774;52.034;5.342;2024-02-14T02:01:09;4.00;;;3.60;;
19280;SDS011;9774;52.034;5.342;2024-02-14T02:03:37;4.40;;;3.80;;
19280;SDS011;9774;52.034;5.342;2024-02-14T02:06:07;4.35;;;3.58;;
19280;SDS011;9774;52.034;5.342;2024-02-14T02:08:34;5.57;;;3.90;;
19280;SDS011;9774;52.034;5.342;2024-02-14T02:11:01;5.78;;;4.57;;
19280;SDS011;9774;52.034;5.342;2024-02-14T02:13:29;5.22;;;4.18;;
19280;SDS011;9774;52.034;5.342;2024-02-14T02:15:56;4.50;;;3.80;;
19280;SDS011;9774;52.034;5.342;2024-02-14T02:18:24;5.00;;;4.22;;
19280;SDS011;9774;52.034;5.342;2024-02-14T02:20:51;6.32;;;4.07;;
19280;SDS011;9774;52.034;5.342;2024-02-14T02:23:20;4.43;;;4.03;;
19280;SDS011;9774;52.034;5.342;2024-02-14T02:25:47;4.80;;;4.32;;
19280;SDS011;9774;52.034;5.342;2024-02-14T02:28:15;4.43;;;4.03;;
19280;SDS011;9774;52.034;5.342;2024-02-14T02:30:42;5.15;;;4.65;;
19280;SDS011;9774;52.034;5.342;2024-02-14T02:33:11;5.13;;;4.57;;
19280;SDS011;9774;52.034;5.342;2024-02-14T02:35:41;6.00;;;5.40;;
19280;SDS011;9774;52.034;5.342;2024-02-14T02:38:10;4.82;;;4.13;;
19280;SDS011;9774;52.034;5.342;2024-02-14T02:40:38;4.63;;;4.22;;
19280;SDS011;9774;52.034;5.342;2024-02-14T02:43:06;5.80;;;4.47;;
19280;SDS011;9774;52.034;5.342;2024-02-14T02:45:33;8.38;;;5.00;;
19280;SDS011;9774;52.034;5.342;2024-02-14T02:48:00;5.30;;;4.80;;
19280;SDS011;9774;52.034;5.342;2024-02-14T02:50:27;5.53;;;5.03;;
19280;SDS011;9774;52.034;5.342;2024-02-14T02:52:55;5.22;;;4.22;;
19280;SDS011;9774;52.034;5.342;2024-02-14T02:55:22;5.43;;;4.93;;
19280;SDS011;9774;52.034;5.342;2024-02-14T02:57:52;5.45;;;4.80;;
19280;SDS011;9774;52.034;5.342;2024-02-14T03:00:20;6.43;;;5.13;;
19280;SDS011;9774;52.034;5.342;2024-02-14T03:02:48;5.20;;;4.70;;
19280;SDS011;9774;52.034;5.342;2024-02-14T03:05:15;4.78;;;4.18;;
19280;SDS011;9774;52.034;5.342;2024-02-14T03:07:43;4.93;;;4.53;;
19280;SDS011;9774;52.034;5.342;2024-02-14T03:10:13;4.60;;;4.20;;
19280;SDS011;9774;52.034;5.342;2024-02-14T03:12:44;5.32;;;4.72;;
19280;SDS011;9774;52.034;5.342;2024-02-14T03:15:14;5.07;;;4.57;;
19280;SDS011;9774;52.034;5.342;2024-02-14T03:17:42;5.43;;;4.93;;
19280;SDS011;9774;52.034;5.342;2024-02-14T03:20:09;6.65;;;4.93;;
19280;SDS011;9774;52.034;5.342;2024-02-14T03:22:39;5.68;;;5.05;;
19280;SDS011;9774;52.034;5.342;2024-02-14T03:27:38;5.43;;;4.93;;
19280;SDS011;9774;52.034;5.342;2024-02-14T03:30:06;6.68;;;5.95;;
19280;SDS011;9774;52.034;5.342;2024-02-14T03:32:36;5.85;;;5.35;;
19280;SDS011;9774;52.034;5.342;2024-02-14T03:35:03;6.65;;;5.80;;
19280;SDS011;9774;52.034;5.342;2024-02-14T03:37:31;6.28;;;5.68;;
19280;SDS011;9774;52.034;5.342;2024-02-14T03:39:59;6.95;;;5.07;;
19280;SDS011;9774;52.034;5.342;2024-02-14T03:42:28;9.68;;;6.22;;
19280;SDS011;9774;52.034;5.342;2024-02-14T03:44:55;6.97;;;5.40;;
19280;SDS011;9774;52.034;5.342;2024-02-14T03:47:27;7.50;;;4.85;;
19280;SDS011;9774;52.034;5.342;2024-02-14T03:49:57;8.57;;;5.65;;
19280;SDS011;9774;52.034;5.342;2024-02-14T03:52:25;7.32;;;5.53;;
19280;SDS011;9774;52.034;5.342;2024-02-14T03:54:52;7.82;;;5.70;;
19280;SDS011;9774;52.034;5.342;2024-02-14T03:57:19;6.70;;;5.45;;
19280;SDS011;9774;52.034;5.342;2024-02-14T03:59:47;7.65;;;5.75;;
19280;SDS011;9774;52.034;5.342;2024-02-14T04:02:14;6.22;;;4.97;;
19280;SDS011;9774;52.034;5.342;2024-02-14T04:04:41;7.07;;;5.15;;
19280;SDS011;9774;52.034;5.342;2024-02-14T04:07:10;7.75;;;6.30;;
19280;SDS011;9774;52.034;5.342;2024-02-14T04:09:37;7.60;;;5.80;;
19280;SDS011;9774;52.034;5.342;2024-02-14T04:12:05;8.98;;;5.80;;
19280;SDS011;9774;52.034;5.342;2024-02-14T04:14:32;7.80;;;5.80;;
19280;SDS011;9774;52.034;5.342;2024-02-14T04:16:59;7.43;;;6.28;;
19280;SDS011;9774;52.034;5.342;2024-02-14T04:19:27;5.85;;;5.05;;
19280;SDS011;9774;52.034;5.342;2024-02-14T04:21:54;7.60;;;5.57;;
19280;SDS011;9774;52.034;5.342;2024-02-14T04:24:23;7.78;;;6.28;;
19280;SDS011;9774;52.034;5.342;2024-02-14T04:26:52;8.02;;;6.18;;
19280;SDS011;9774;52.034;5.342;2024-02-14T04:29:20;6.85;;;6.18;;
19280;SDS011;9774;52.034;5.342;2024-02-14T04:31:48;10.73;;;6.68;;
19280;SDS011;9774;52.034;5.342;2024-02-14T04:34:15;12.55;;;6.47;;
19280;SDS011;9774;52.034;5.342;2024-02-14T04:36:44;7.28;;;6.45;;
19280;SDS011;9774;52.034;5.342;2024-02-14T04:39:11;7.10;;;6.40;;
19280;SDS011;9774;52.034;5.342;2024-02-14T04:41:40;8.02;;;6.32;;
19280;SDS011;9774;52.034;5.342;2024-02-14T04:44:07;6.10;;;5.43;;
19280;SDS011;9774;52.034;5.342;2024-02-14T04:46:34;6.63;;;5.53;;
19280;SDS011;9774;52.034;5.342;2024-02-14T04:49:03;7.35;;;6.47;;
19280;SDS011;9774;52.034;5.342;2024-02-14T04:51:30;9.80;;;6.78;;
19280;SDS011;9774;52.034;5.342;2024-02-14T04:53:57;8.65;;;6.38;;
19280;SDS011;9774;52.034;5.342;2024-02-14T04:56:24;7.32;;;6.55;;
19280;SDS011;9774;52.034;5.342;2024-02-14T04:58:53;6.93;;;5.82;;
19280;SDS011;9774;52.034;5.342;2024-02-14T05:01:21;6.95;;;6.25;;
19280;SDS011;9774;52.034;5.342;2024-02-14T05:03:48;8.93;;;6.15;;
19280;SDS011;9774;52.034;5.342;2024-02-14T05:06:15;7.40;;;6.40;;
19280;SDS011;9774;52.034;5.342;2024-02-14T05:08:43;7.97;;;5.72;;
19280;SDS011;9774;52.034;5.342;2024-02-14T05:11:10;7.30;;;5.50;;
19280;SDS011;9774;52.034;5.342;2024-02-14T05:13:37;9.55;;;5.70;;
19280;SDS011;9774;52.034;5.342;2024-02-14T05:16:08;6.45;;;5.35;;
19280;SDS011;9774;52.034;5.342;2024-02-14T05:18:35;6.57;;;5.70;;
19280;SDS011;9774;52.034;5.342;2024-02-14T05:21:04;6.88;;;5.55;;
19280;SDS011;9774;52.034;5.342;2024-02-14T05:23:33;7.72;;;5.97;;
19280;SDS011;9774;52.034;5.342;2024-02-14T05:26:00;8.43;;;5.75;;
19280;SDS011;9774;52.034;5.342;2024-02-14T05:28:28;5.95;;;5.30;;
19280;SDS011;9774;52.034;5.342;2024-02-14T05:30:56;6.00;;;5.43;;
19280;SDS011;9774;52.034;5.342;2024-02-14T05:33:26;6.75;;;4.93;;
19280;SDS011;9774;52.034;5.342;2024-02-14T05:35:53;6.07;;;5.50;;
19280;SDS011;9774;52.034;5.342;2024-02-14T05:38:21;7.03;;;4.82;;
19280;SDS011;9774;52.034;5.342;2024-02-14T05:40:48;6.13;;;5.10;;
19280;SDS011;9774;52.034;5.342;2024-02-14T05:43:16;6.60;;;5.95;;
19280;SDS011;9774;52.034;5.342;2024-02-14T05:45:43;6.18;;;5.53;;
19280;SDS011;9774;52.034;5.342;2024-02-14T05:48:10;6.15;;;5.55;;
19280;SDS011;9774;52.034;5.342;2024-02-14T05:50:39;6.57;;;5.65;;
19280;SDS011;9774;52.034;5.342;2024-02-14T05:53:06;6.03;;;5.43;;
19280;SDS011;9774;52.034;5.342;2024-02-14T05:55:33;6.40;;;5.05;;
19280;SDS011;9774;52.034;5.342;2024-02-14T05:58:00;5.47;;;4.97;;
19280;SDS011;9774;52.034;5.342;2024-02-14T06:00:27;5.72;;;5.05;;
19280;SDS011;9774;52.034;5.342;2024-02-14T06:02:54;7.97;;;5.90;;
19280;SDS011;9774;52.034;5.342;2024-02-14T06:05:22;5.75;;;5.15;;
19280;SDS011;9774;52.034;5.342;2024-02-14T06:07:50;5.90;;;5.30;;
19280;SDS011;9774;52.034;5.342;2024-02-14T06:10:17;5.82;;;5.28;;
19280;SDS011;9774;52.034;5.342;2024-02-14T06:12:45;5.22;;;4.65;;
19280;SDS011;9774;52.034;5.342;2024-02-14T06:15:13;5.18;;;4.72;;
19280;SDS011;9774;52.034;5.342;2024-02-14T06:17:41;4.78;;;4.18;;
19280;SDS011;9774;52.034;5.342;2024-02-14T06:20:09;5.15;;;4.65;;
19280;SDS011;9774;52.034;5.342;2024-02-14T06:22:37;5.22;;;4.75;;
19280;SDS011;9774;52.034;5.342;2024-02-14T06:25:06;5.82;;;4.63;;
19280;SDS011;9774;52.034;5.342;2024-02-14T06:27:34;5.85;;;5.35;;
19280;SDS011;9774;52.034;5.342;2024-02-14T06:30:02;4.97;;;4.57;;
19280;SDS011;9774;52.034;5.342;2024-02-14T06:32:30;5.75;;;5.15;;
19280;SDS011;9774;52.034;5.342;2024-02-14T06:34:57;6.50;;;5.30;;
19280;SDS011;9774;52.034;5.342;2024-02-14T06:37:24;6.63;;;5.28;;
19280;SDS011;9774;52.034;5.342;2024-02-14T06:39:51;6.63;;;6.03;;
19280;SDS011;9774;52.034;5.342;2024-02-14T06:42:20;6.10;;;5.20;;
19280;SDS011;9774;52.034;5.342;2024-02-14T06:44:47;6.78;;;6.13;;
19280;SDS011;9774;52.034;5.342;2024-02-14T06:47:14;6.78;;;6.10;;
19280;SDS011;9774;52.034;5.342;2024-02-14T06:49:41;6.35;;;5.68;;
19280;SDS011;9774;52.034;5.342;2024-02-14T06:52:08;7.05;;;6.38;;
19280;SDS011;9774;52.034;5.342;2024-02-14T06:54:36;8.18;;;7.38;;
19280;SDS011;9774;52.034;5.342;2024-02-14T06:57:04;7.78;;;6.97;;
19280;SDS011;9774;52.034;5.342;2024-02-14T06:59:34;8.30;;;7.50;;
19280;SDS011;9774;52.034;5.342;2024-02-14T07:02:03;8.05;;;7.13;;
19280;SDS011;9774;52.034;5.342;2024-02-14T07:04:31;8.90;;;8.00;;
19280;SDS011;9774;52.034;5.342;2024-02-14T07:06:59;8.50;;;7.70;;
19280;SDS011;9774;52.034;5.342;2024-02-14T07:09:26;8.57;;;7.68;;
19280;SDS011;9774;52.034;5.342;2024-02-14T07:11:54;11.80;;;7.57;;
19280;SDS011;9774;52.034;5.342;2024-02-14T07:14:23;10.35;;;7.38;;
19280;SDS011;9774;52.034;5.342;2024-02-14T07:16:51;8.18;;;7.45;;
19280;SDS011;9774;52.034;5.342;2024-02-14T07:19:19;8.27;;;7.45;;
19280;SDS011;9774;52.034;5.342;2024-02-14T07:21:46;9.02;;;7.82;;
19280;SDS011;9774;52.034;5.342;2024-02-14T07:24:13;8.88;;;7.97;;
19280;SDS011;9774;52.034;5.342;2024-02-14T07:26:40;8.75;;;7.55;;
19280;SDS011;9774;52.034;5.342;2024-02-14T07:29:09;9.43;;;7.55;;
19280;SDS011;9774;52.034;5.342;2024-02-14T07:31:36;8.52;;;7.72;;
19280;SDS011;9774;52.034;5.342;2024-02-14T07:34:05;9.27;;;7.35;;
19280;SDS011;9774;52.034;5.342;2024-02-14T07:36:32;8.90;;;7.43;;
19280;SDS011;9774;52.034;5.342;2024-02-14T07:38:59;8.15;;;7.35;;
19280;SDS011;9774;52.034;5.342;2024-02-14T07:41:26;8.45;;;7.28;;
19280;SDS011;9774;52.034;5.342;2024-02-14T07:43:53;7.75;;;6.72;;
19280;SDS011;9774;52.034;5.342;2024-02-14T07:46:21;9.27;;;7.82;;
19280;SDS011;9774;52.034;5.342;2024-02-14T07:48:51;8.18;;;7.38;;
19280;SDS011;9774;52.034;5.342;2024-02-14T07:51:20;8.00;;;7.20;;
19280;SDS011;9774;52.034;5.342;2024-02-14T07:53:48;6.75;;;6.15;;
19280;SDS011;9774;52.034;5.342;2024-02-14T07:56:15;6.70;;;6.03;;
19280;SDS011;9774;52.034;5.342;2024-02-14T07:58:43;7.75;;;6.65;;
19280;SDS011;9774;52.034;5.342;2024-02-14T08:01:10;7.30;;;6.60;;
19280;SDS011;9774;52.034;5.342;2024-02-14T08:03:37;7.00;;;6.07;;
19280;SDS011;9774;52.034;5.342;2024-02-14T08:06:06;6.75;;;6.10;;
19280;SDS011;9774;52.034;5.342;2024-02-14T08:08:36;7.90;;;7.20;;
19280;SDS011;9774;52.034;5.342;2024-02-14T08:11:03;7.72;;;7.03;;
19280;SDS011;9774;52.034;5.342;2024-02-14T08:13:31;7.43;;;6.68;;
19280;SDS011;9774;52.034;5.342;2024-02-14T08:15:59;7.97;;;7.20;;
19280;SDS011;9774;52.034;5.342;2024-02-14T08:18:26;8.75;;;7.85;;
19280;SDS011;9774;52.034;5.342;2024-02-14T08:20:53;9.75;;;8.15;;
19280;SDS011;9774;52.034;5.342;2024-02-14T08:23:20;9.07;;;7.43;;
19280;SDS011;9774;52.034;5.342;2024-02-14T08:25:49;11.18;;;8.70;;
19280;SDS011;9774;52.034;5.342;2024-02-14T08:28:17;7.95;;;7.15;;
19280;SDS011;9774;52.034;5.342;2024-02-14T08:30:45;8.93;;;7.97;;
19280;SDS011;9774;52.034;5.342;2024-02-14T08:33:13;8.38;;;7.57;;
19280;SDS011;9774;52.034;5.342;2024-02-14T08:35:41;8.80;;;7.47;;
19280;SDS011;9774;52.034;5.342;2024-02-14T08:38:13;8.93;;;8.02;;
19280;SDS011;9774;52.034;5.342;2024-02-14T08:40:41;8.00;;;7.20;;
19280;SDS011;9774;52.034;5.342;2024-02-14T08:43:10;9.13;;;8.23;;
19280;SDS011;9774;52.034;5.342;2024-02-14T08:45:37;8.73;;;7.93;;
19280;SDS011;9774;52.034;5.342;2024-02-14T08:48:06;8.75;;;7.85;;
19280;SDS011;9774;52.034;5.342;2024-02-14T08:50:33;8.73;;;7.82;;
19280;SDS011;9774;52.034;5.342;2024-02-14T08:53:00;8.18;;;7.38;;
19280;SDS011;9774;52.034;5.342;2024-02-14T08:55:28;8.48;;;7.68;;
19280;SDS011;9774;52.034;5.342;2024-02-14T08:57:58;8.45;;;7.15;;
19280;SDS011;9774;52.034;5.342;2024-02-14T09:00:26;8.20;;;7.40;;
19280;SDS011;9774;52.034;5.342;2024-02-14T09:02:55;8.77;;;7.32;;
19280;SDS011;9774;52.034;5.342;2024-02-14T09:05:25;8.32;;;7.13;;
19280;SDS011;9774;52.034;5.342;2024-02-14T09:07:53;8.18;;;7.43;;
19280;SDS011;9774;52.034;5.342;2024-02-14T09:10:20;7.75;;;7.03;;
19280;SDS011;9774;52.034;5.342;2024-02-14T09:12:47;8.20;;;7.50;;
19280;SDS011;9774;52.034;5.342;2024-02-14T09:15:15;7.97;;;7.28;;
19280;SDS011;9774;52.034;5.342;2024-02-14T09:17:43;9.00;;;7.53;;
19280;SDS011;9774;52.034;5.342;2024-02-14T09:20:11;8.20;;;6.82;;
19280;SDS011;9774;52.034;5.342;2024-02-14T09:22:39;8.00;;;7.30;;
19280;SDS011;9774;52.034;5.342;2024-02-14T09:25:07;8.48;;;7.60;;
19280;SDS011;9774;52.034;5.342;2024-02-14T09:27:35;8.10;;;7.30;;
19280;SDS011;9774;52.034;5.342;2024-02-14T09:30:02;10.52;;;8.38;;
19280;SDS011;9774;52.034;5.342;2024-02-14T09:32:32;7.47;;;6.72;;
19280;SDS011;9774;52.034;5.342;2024-02-14T09:35:01;9.73;;;7.70;;
19280;SDS011;9774;52.034;5.342;2024-02-14T09:37:31;7.40;;;6.47;;
19280;SDS011;9774;52.034;5.342;2024-02-14T09:39:59;7.05;;;6.40;;
19280;SDS011;9774;52.034;5.342;2024-02-14T09:42:28;7.88;;;7.18;;
19280;SDS011;9774;52.034;5.342;2024-02-14T09:45:04;7.78;;;6.78;;
19280;SDS011;9774;52.034;5.342;2024-02-14T09:47:33;10.25;;;6.97;;
19280;SDS011;9774;52.034;5.342;2024-02-14T09:50:05;9.98;;;8.40;;
19280;SDS011;9774;52.034;5.342;2024-02-14T09:52:35;10.05;;;8.13;;
19280;SDS011;9774;52.034;5.342;2024-02-14T09:55:05;8.20;;;7.38;;
19280;SDS011;9774;52.034;5.342;2024-02-14T09:57:35;8.52;;;7.72;;
19280;SDS011;9774;52.034;5.342;2024-02-14T10:00:07;9.73;;;8.60;;
19280;SDS011;9774;52.034;5.342;2024-02-14T10:02:38;10.05;;;7.28;;
19280;SDS011;9774;52.034;5.342;2024-02-14T10:05:07;7.65;;;6.75;;
19280;SDS011;9774;52.034;5.342;2024-02-14T10:07:40;8.27;;;7.45;;
19280;SDS011;9774;52.034;5.342;2024-02-14T10:10:09;7.47;;;6.72;;
19280;SDS011;9774;52.034;5.342;2024-02-14T10:12:38;8.48;;;7.38;;
19280;SDS011;9774;52.034;5.342;2024-02-14T10:15:06;7.28;;;6.68;;
19280;SDS011;9774;52.034;5.342;2024-02-14T10:17:35;6.22;;;5.68;;
19280;SDS011;9774;52.034;5.342;2024-02-14T10:20:02;6.65;;;6.05;;
19280;SDS011;9774;52.034;5.342;2024-02-14T10:22:35;6.05;;;5.45;;
19280;SDS011;9774;52.034;5.342;2024-02-14T10:25:04;6.43;;;5.93;;
19280;SDS011;9774;52.034;5.342;2024-02-14T10:27:34;7.47;;;6.25;;
19280;SDS011;9774;52.034;5.342;2024-02-14T10:30:04;6.82;;;6.13;;
19280;SDS011;9774;52.034;5.342;2024-02-14T10:32:34;6.85;;;6.10;;
19280;SDS011;9774;52.034;5.342;2024-02-14T10:35:03;7.10;;;5.85;;
19280;SDS011;9774;52.034;5.342;2024-02-14T10:37:34;7.57;;;6.45;;
19280;SDS011;9774;52.034;5.342;2024-02-14T10:40:03;6.55;;;5.95;;
19280;SDS011;9774;52.034;5.342;2024-02-14T10:42:31;7.07;;;6.30;;
19280;SDS011;9774;52.034;5.342;2024-02-14T10:44:59;6.45;;;5.85;;
19280;SDS011;9774;52.034;5.342;2024-02-14T10:47:29;6.85;;;6.05;;
19280;SDS011;9774;52.034;5.342;2024-02-14T10:50:00;7.93;;;5.90;;
19280;SDS011;9774;52.034;5.342;2024-02-14T10:52:30;6.75;;;6.15;;
19280;SDS011;9774;52.034;5.342;2024-02-14T10:55:01;7.22;;;6.38;;
19280;SDS011;9774;52.034;5.342;2024-02-14T10:57:30;7.40;;;6.00;;
19280;SDS011;9774;52.034;5.342;2024-02-14T10:59:58;6.68;;;5.65;;
19280;SDS011;9774;52.034;5.342;2024-02-14T11:02:30;6.43;;;5.82;;
19280;SDS011;9774;52.034;5.342;2024-02-14T11:04:58;6.82;;;5.95;;
19280;SDS011;9774;52.034;5.342;2024-02-14T11:07:27;6.20;;;5.20;;
19280;SDS011;9774;52.034;5.342;2024-02-14T11:10:05;6.30;;;5.80;;
19280;SDS011;9774;52.034;5.342;2024-02-14T11:12:34;5.53;;;5.03;;
19280;SDS011;9774;52.034;5.342;2024-02-14T11:15:09;6.07;;;5.47;;
19280;SDS011;9774;52.034;5.342;2024-02-14T11:17:38;4.97;;;4.57;;
19280;SDS011;9774;52.034;5.342;2024-02-14T11:20:15;5.75;;;5.20;;
19280;SDS011;9774;52.034;5.342;2024-02-14T11:22:54;4.95;;;4.55;;
19280;SDS011;9774;52.034;5.342;2024-02-14T11:25:24;6.13;;;5.38;;
19280;SDS011;9774;52.034;5.342;2024-02-14T11:27:59;6.65;;;5.95;;
19280;SDS011;9774;52.034;5.342;2024-02-14T11:30:29;6.35;;;5.85;;
19280;SDS011;9774;52.034;5.342;2024-02-14T11:33:14;6.18;;;5.57;;
19280;SDS011;9774;52.034;5.342;2024-02-14T11:35:44;5.35;;;4.68;;
19280;SDS011;9774;52.034;5.342;2024-02-14T11:38:15;5.28;;;4.80;;
19280;SDS011;9774;52.034;5.342;2024-02-14T11:40:43;5.28;;;4.78;;
19280;SDS011;9774;52.034;5.342;2024-02-14T11:43:11;5.65;;;5.15;;
19280;SDS011;9774;52.034;5.342;2024-02-14T11:45:39;7.38;;;5.57;;
19280;SDS011;9774;52.034;5.342;2024-02-14T11:48:08;6.93;;;5.65;;
19280;SDS011;9774;52.034;5.342;2024-02-14T11:50:38;6.25;;;4.93;;
19280;SDS011;9774;52.034;5.342;2024-02-14T11:53:08;6.65;;;5.38;;
19280;SDS011;9774;52.034;5.342;2024-02-14T11:55:37;5.07;;;4.63;;
19280;SDS011;9774;52.034;5.342;2024-02-14T11:58:09;5.40;;;4.80;;
19280;SDS011;9774;52.034;5.342;2024-02-14T12:00:38;4.63;;;3.95;;
19280;SDS011;9774;52.034;5.342;2024-02-14T12:03:07;5.13;;;4.55;;
19280;SDS011;9774;52.034;5.342;2024-02-14T12:05:38;5.53;;;4.70;;
19280;SDS011;9774;52.034;5.342;2024-02-14T12:08:08;6.35;;;4.55;;
19280;SDS011;9774;52.034;5.342;2024-02-14T12:10:36;5.63;;;4.30;;
19280;SDS011;9774;52.034;5.342;2024-02-14T12:13:08;4.82;;;4.43;;
19280;SDS011;9774;52.034;5.342;2024-02-14T12:15:38;5.93;;;4.25;;
19280;SDS011;9774;52.034;5.342;2024-02-14T12:18:06;4.78;;;4.25;;
19280;SDS011;9774;52.034;5.342;2024-02-14T12:20:35;4.07;;;3.67;;
19280;SDS011;9774;52.034;5.342;2024-02-14T12:23:02;4.80;;;4.20;;
19280;SDS011;9774;52.034;5.342;2024-02-14T12:25:30;4.28;;;3.90;;
19280;SDS011;9774;52.034;5.342;2024-02-14T12:27:59;4.10;;;3.70;;
19280;SDS011;9774;52.034;5.342;2024-02-14T12:30:42;3.85;;;3.55;;
19280;SDS011;9774;52.034;5.342;2024-02-14T12:33:11;3.53;;;3.22;;
19280;SDS011;9774;52.034;5.342;2024-02-14T12:35:42;4.28;;;3.10;;
19280;SDS011;9774;52.034;5.342;2024-02-14T12:38:11;4.03;;;3.63;;
19280;SDS011;9774;52.034;5.342;2024-02-14T12:40:40;3.42;;;3.13;;
19280;SDS011;9774;52.034;5.342;2024-02-14T12:43:09;3.90;;;3.30;;
19280;SDS011;9774;52.034;5.342;2024-02-14T12:45:38;4.03;;;3.63;;
19280;SDS011;9774;52.034;5.342;2024-02-14T12:48:06;3.45;;;2.97;;
19280;SDS011;9774;52.034;5.342;2024-02-14T12:50:34;3.30;;;3.00;;
19280;SDS011;9774;52.034;5.342;2024-02-14T12:53:03;3.67;;;2.83;;
19280;SDS011;9774;52.034;5.342;2024-02-14T12:55:29;2.70;;;2.33;;
19280;SDS011;9774;52.034;5.342;2024-02-14T12:57:57;7.47;;;3.00;;
19280;SDS011;9774;52.034;5.342;2024-02-14T13:00:24;2.95;;;2.65;;
19280;SDS011;9774;52.034;5.342;2024-02-14T13:02:53;2.97;;;2.70;;
19280;SDS011;9774;52.034;5.342;2024-02-14T13:05:21;2.78;;;2.58;;
19280;SDS011;9774;52.034;5.342;2024-02-14T13:07:48;2.25;;;2.08;;
19280;SDS011;9774;52.034;5.342;2024-02-14T13:10:15;2.40;;;2.20;;
19280;SDS011;9774;52.034;5.342;2024-02-14T13:12:43;2.67;;;2.47;;
19280;SDS011;9774;52.034;5.342;2024-02-14T13:15:10;2.05;;;1.85;;
19280;SDS011;9774;52.034;5.342;2024-02-14T13:17:38;2.17;;;1.98;;
19280;SDS011;9774;52.034;5.342;2024-02-14T13:20:07;2.00;;;1.90;;
19280;SDS011;9774;52.034;5.342;2024-02-14T13:22:35;2.60;;;1.92;;
19280;SDS011;9774;52.034;5.342;2024-02-14T13:25:03;2.25;;;2.08;;
19280;SDS011;9774;52.034;5.342;2024-02-14T13:27:31;2.10;;;1.92;;
19280;SDS011;9774;52.034;5.342;2024-02-14T13:29:58;2.25;;;2.05;;
19280;SDS011;9774;52.034;5.342;2024-02-14T13:32:26;2.10;;;2.00;;
19280;SDS011;9774;52.034;5.342;2024-02-14T13:34:53;2.38;;;2.17;;
19280;SDS011;9774;52.034;5.342;2024-02-14T13:37:21;2.58;;;2.25;;
19280;SDS011;9774;52.034;5.342;2024-02-14T13:39:49;2.35;;;2.15;;
19280;SDS011;9774;52.034;5.342;2024-02-14T13:42:16;4.55;;;2.35;;
19280;SDS011;9774;52.034;5.342;2024-02-14T13:44:48;2.88;;;2.47;;
19280;SDS011;9774;52.034;5.342;2024-02-14T13:47:18;3.03;;;2.72;;
19280;SDS011;9774;52.034;5.342;2024-02-14T13:49:46;2.97;;;2.67;;
19280;SDS011;9774;52.034;5.342;2024-02-14T13:52:16;3.58;;;3.28;;
19280;SDS011;9774;52.034;5.342;2024-02-14T13:54:47;3.35;;;3.05;;
19280;SDS011;9774;52.034;5.342;2024-02-14T13:57:14;4.50;;;3.00;;
19280;SDS011;9774;52.034;5.342;2024-02-14T13:59:45;4.00;;;3.38;;
19280;SDS011;9774;52.034;5.342;2024-02-14T14:02:12;3.78;;;3.47;;
19280;SDS011;9774;52.034;5.342;2024-02-14T14:04:39;3.38;;;3.08;;
19280;SDS011;9774;52.034;5.342;2024-02-14T14:07:06;3.97;;;3.67;;
19280;SDS011;9774;52.034;5.342;2024-02-14T14:09:35;3.95;;;3.53;;
19280;SDS011;9774;52.034;5.342;2024-02-14T14:12:04;4.13;;;3.63;;
19280;SDS011;9774;52.034;5.342;2024-02-14T14:14:32;4.22;;;3.85;;
19280;SDS011;9774;52.034;5.342;2024-02-14T14:16:59;4.18;;;3.80;;
19280;SDS011;9774;52.034;5.342;2024-02-14T14:19:26;4.07;;;3.78;;
19280;SDS011;9774;52.034;5.342;2024-02-14T14:21:53;4.20;;;3.80;;
19280;SDS011;9774;52.034;5.342;2024-02-14T14:24:21;4.22;;;3.88;;
19280;SDS011;9774;52.034;5.342;2024-02-14T14:26:50;4.40;;;3.97;;
19280;SDS011;9774;52.034;5.342;2024-02-14T14:29:19;3.90;;;3.50;;
19280;SDS011;9774;52.034;5.342;2024-02-14T14:31:46;4.47;;;4.10;;
19280;SDS011;9774;52.034;5.342;2024-02-14T14:34:13;4.25;;;3.85;;
19280;SDS011;9774;52.034;5.342;2024-02-14T14:36:40;3.45;;;3.15;;
19280;SDS011;9774;52.034;5.342;2024-02-14T14:39:07;3.67;;;3.38;;
19280;SDS011;9774;52.034;5.342;2024-02-14T14:41:36;4.65;;;3.90;;
19280;SDS011;9774;52.034;5.342;2024-02-14T14:44:03;3.35;;;3.05;;
19280;SDS011;9774;52.034;5.342;2024-02-14T14:46:32;3.88;;;3.47;;
19280;SDS011;9774;52.034;5.342;2024-02-14T14:49:00;3.58;;;3.28;;
19280;SDS011;9774;52.034;5.342;2024-02-14T14:51:30;4.20;;;3.80;;
19280;SDS011;9774;52.034;5.342;2024-02-14T14:53:57;4.07;;;3.78;;
19280;SDS011;9774;52.034;5.342;2024-02-14T14:56:26;3.92;;;3.63;;
19280;SDS011;9774;52.034;5.342;2024-02-14T14:58:54;3.72;;;3.42;;
19280;SDS011;9774;52.034;5.342;2024-02-14T15:01:24;3.97;;;3.60;;
19280;SDS011;9774;52.034;5.342;2024-02-14T15:03:55;4.38;;;3.65;;
19280;SDS011;9774;52.034;5.342;2024-02-14T15:06:26;4.28;;;3.47;;
19280;SDS011;9774;52.034;5.342;2024-02-14T15:08:53;4.15;;;3.15;;